sensor_id;sensor_type;location;lat;lon;timestamp;P1;durP1;ratioP1;P2;durP2;ratioP2
12665;SDS011;58531;59.050;17.416;2024-02-16T00:00:27;116.10;;;18.87;;
12665;SDS011;58531;59.050;17.416;2024-02-16T00:02:54;147.40;;;20.23;;
12665;SDS011;58531;59.050;17.416;2024-02-16T00:05:21;122.73;;;18.90;;
12665;SDS011;58531;59.050;17.416;2024-02-16T00:07:48;90.17;;;16.47;;
12665;SDS011;58531;59.050;17.416;2024-02-16T00:10:15;107.73;;;17.67;;
12665;SDS011;58531;59.050;17.416;2024-02-16T00:12:43;112.67;;;17.93;;
12665;SDS011;58531;59.050;17.416;2024-02-16T00:15:10;175.07;;;23.53;;
12665;SDS011;58531;59.050;17.416;2024-02-16T00:17:39;161.27;;;22.67;;
12665;SDS011;58531;59.050;17.416;2024-02-16T00:20:06;129.20;;;19.27;;
12665;SDS011;58531;59.050;17.416;2024-02-16T00:22:34;106.70;;;19.40;;
12665;SDS011;58531;59.050;17.416;2024-02-16T00:25:01;84.33;;;16.73;;
12665;SDS011;58531;59.050;17.416;2024-02-16T00:27:28;82.90;;;17.17;;
12665;SDS011;58531;59.050;17.416;2024-02-16T00:29:55;66.20;;;15.87;;
12665;SDS011;58531;59.050;17.416;2024-02-16T00:32:22;81.33;;;16.23;;
12665;SDS011;58531;59.050;17.416;2024-02-16T00:34:51;149.03;;;22.00;;
12665;SDS011;58531;59.050;17.416;2024-02-16T00:37:18;103.83;;;18.07;;
12665;SDS011;58531;59.050;17.416;2024-02-16T00:39:48;130.13;;;20.90;;
12665;SDS011;58531;59.050;17.416;2024-02-16T00:42:15;85.40;;;16.53;;
12665;SDS011;58531;59.050;17.416;2024-02-16T00:44:42;124.87;;;21.73;;
12665;SDS011;58531;59.050;17.416;2024-02-16T00:47:09;94.87;;;17.37;;
12665;SDS011;58531;59.050;17.416;2024-02-16T00:49:35;81.83;;;18.53;;
12665;SDS011;58531;59.050;17.416;2024-02-16T00:52:04;91.30;;;18.37;;
12665;SDS011;58531;59.050;17.416;2024-02-16T00:54:31;61.13;;;13.87;;
12665;SDS011;58531;59.050;17.416;2024-02-16T00:56:58;70.07;;;16.83;;
12665;SDS011;58531;59.050;17.416;2024-02-16T00:59:27;89.73;;;17.07;;
12665;SDS011;58531;59.050;17.416;2024-02-16T01:01:54;102.47;;;18.17;;
12665;SDS011;58531;59.050;17.416;2024-02-16T01:04:21;71.43;;;14.67;;
12665;SDS011;58531;59.050;17.416;2024-02-16T01:06:48;140.17;;;22.13;;
12665;SDS011;58531;59.050;17.416;2024-02-16T01:09:17;85.70;;;16.47;;
12665;SDS011;58531;59.050;17.416;2024-02-16T01:11:44;114.43;;;18.07;;
12665;SDS011;58531;59.050;17.416;2024-02-16T01:14:10;89.03;;;17.47;;
12665;SDS011;58531;59.050;17.416;2024-02-16T01:16:37;100.33;;;17.63;;
12665;SDS011;58531;59.050;17.416;2024-02-16T01:19:04;104.87;;;18.10;;
12665;SDS011;58531;59.050;17.416;2024-02-16T01:21:32;118.37;;;20.00;;
12665;SDS011;58531;59.050;17.416;2024-02-16T01:23:59;131.47;;;22.17;;
12665;SDS011;58531;59.050;17.416;2024-02-16T01:26:27;69.43;;;18.30;;
12665;SDS011;58531;59.050;17.416;2024-02-16T01:28:54;102.90;;;17.60;;
12665;SDS011;58531;59.050;17.416;2024-02-16T01:31:23;84.20;;;17.30;;
12665;SDS011;58531;59.050;17.416;2024-02-16T01:33:50;69.20;;;17.60;;
12665;SDS011;58531;59.050;17.416;2024-02-16T01:36:18;86.57;;;19.07;;
12665;SDS011;58531;59.050;17.416;2024-02-16T01:38:45;103.33;;;19.40;;
12665;SDS011;58531;59.050;17.416;2024-02-16T01:41:12;87.00;;;19.13;;
12665;SDS011;58531;59.050;17.416;2024-02-16T01:43:41;66.87;;;16.17;;
12665;SDS011;58531;59.050;17.416;2024-02-16T01:46:08;91.23;;;17.63;;
12665;SDS011;58531;59.050;17.416;2024-02-16T01:48:36;145.90;;;22.57;;
12665;SDS011;58531;59.050;17.416;2024-02-16T01:51:04;86.53;;;18.33;;
12665;SDS011;58531;59.050;17.416;2024-02-16T01:53:32;92.00;;;18.53;;
12665;SDS011;58531;59.050;17.416;2024-02-16T01:55:59;103.20;;;19.77;;
12665;SDS011;58531;59.050;17.416;2024-02-16T01:58:26;93.37;;;19.53;;
12665;SDS011;58531;59.050;17.416;2024-02-16T02:00:55;79.47;;;16.33;;
12665;SDS011;58531;59.050;17.416;2024-02-16T02:03:21;83.33;;;19.23;;
12665;SDS011;58531;59.050;17.416;2024-02-16T02:05:48;59.60;;;16.50;;
12665;SDS011;58531;59.050;17.416;2024-02-16T02:08:16;44.83;;;15.33;;
12665;SDS011;58531;59.050;17.416;2024-02-16T02:10:43;65.37;;;17.33;;
12665;SDS011;58531;59.050;17.416;2024-02-16T02:13:10;34.27;;;14.23;;
12665;SDS011;58531;59.050;17.416;2024-02-16T02:15:37;30.67;;;13.77;;
12665;SDS011;58531;59.050;17.416;2024-02-16T02:18:05;28.63;;;12.80;;
12665;SDS011;58531;59.050;17.416;2024-02-16T02:20:32;25.37;;;13.20;;
12665;SDS011;58531;59.050;17.416;2024-02-16T02:23:01;28.43;;;13.33;;
12665;SDS011;58531;59.050;17.416;2024-02-16T02:25:29;27.63;;;12.63;;
12665;SDS011;58531;59.050;17.416;2024-02-16T02:27:56;27.33;;;13.33;;
12665;SDS011;58531;59.050;17.416;2024-02-16T02:30:25;29.17;;;12.47;;
12665;SDS011;58531;59.050;17.416;2024-02-16T02:32:54;28.97;;;12.33;;
12665;SDS011;58531;59.050;17.416;2024-02-16T02:35:21;26.23;;;13.60;;
12665;SDS011;58531;59.050;17.416;2024-02-16T02:37:48;26.27;;;13.23;;
12665;SDS011;58531;59.050;17.416;2024-02-16T02:40:19;25.60;;;12.90;;
12665;SDS011;58531;59.050;17.416;2024-02-16T02:42:46;31.67;;;13.60;;
12665;SDS011;58531;59.050;17.416;2024-02-16T02:45:13;27.43;;;13.50;;
12665;SDS011;58531;59.050;17.416;2024-02-16T02:47:39;29.93;;;13.90;;
12665;SDS011;58531;59.050;17.416;2024-02-16T02:50:07;40.77;;;13.70;;
12665;SDS011;58531;59.050;17.416;2024-02-16T02:52:34;29.87;;;12.47;;
12665;SDS011;58531;59.050;17.416;2024-02-16T02:55:01;29.13;;;12.50;;
12665;SDS011;58531;59.050;17.416;2024-02-16T02:57:30;34.93;;;12.10;;
12665;SDS011;58531;59.050;17.416;2024-02-16T03:00:02;36.53;;;12.40;;
12665;SDS011;58531;59.050;17.416;2024-02-16T03:02:31;41.53;;;13.77;;
12665;SDS011;58531;59.050;17.416;2024-02-16T03:04:58;41.90;;;12.70;;
12665;SDS011;58531;59.050;17.416;2024-02-16T03:07:25;29.50;;;11.30;;
12665;SDS011;58531;59.050;17.416;2024-02-16T03:09:55;20.10;;;10.67;;
12665;SDS011;58531;59.050;17.416;2024-02-16T03:12:22;25.00;;;11.27;;
12665;SDS011;58531;59.050;17.416;2024-02-16T03:14:50;29.90;;;11.67;;
12665;SDS011;58531;59.050;17.416;2024-02-16T03:17:17;26.43;;;10.67;;
12665;SDS011;58531;59.050;17.416;2024-02-16T03:19:44;17.13;;;10.40;;
12665;SDS011;58531;59.050;17.416;2024-02-16T03:22:10;18.33;;;9.73;;
12665;SDS011;58531;59.050;17.416;2024-02-16T03:24:37;17.93;;;9.47;;
12665;SDS011;58531;59.050;17.416;2024-02-16T03:27:04;19.33;;;9.13;;
12665;SDS011;58531;59.050;17.416;2024-02-16T03:29:31;13.00;;;8.13;;
12665;SDS011;58531;59.050;17.416;2024-02-16T03:32:00;15.43;;;8.30;;
12665;SDS011;58531;59.050;17.416;2024-02-16T03:34:27;13.67;;;8.07;;
12665;SDS011;58531;59.050;17.416;2024-02-16T03:36:53;13.77;;;7.63;;
12665;SDS011;58531;59.050;17.416;2024-02-16T03:39:20;13.77;;;8.00;;
12665;SDS011;58531;59.050;17.416;2024-02-16T03:41:47;12.57;;;7.37;;
12665;SDS011;58531;59.050;17.416;2024-02-16T03:44:14;11.13;;;7.60;;
12665;SDS011;58531;59.050;17.416;2024-02-16T03:46:42;8.57;;;6.53;;
12665;SDS011;58531;59.050;17.416;2024-02-16T03:49:10;9.30;;;6.33;;
12665;SDS011;58531;59.050;17.416;2024-02-16T03:51:40;8.03;;;6.30;;
12665;SDS011;58531;59.050;17.416;2024-02-16T03:54:06;9.40;;;6.53;;
12665;SDS011;58531;59.050;17.416;2024-02-16T03:56:34;6.27;;;5.50;;
12665;SDS011;58531;59.050;17.416;2024-02-16T03:59:03;6.30;;;5.27;;
12665;SDS011;58531;59.050;17.416;2024-02-16T04:01:30;7.63;;;5.50;;
12665;SDS011;58531;59.050;17.416;2024-02-16T04:03:59;5.87;;;5.03;;
12665;SDS011;58531;59.050;17.416;2024-02-16T04:06:27;7.13;;;5.90;;
12665;SDS011;58531;59.050;17.416;2024-02-16T04:08:55;6.07;;;5.30;;
12665;SDS011;58531;59.050;17.416;2024-02-16T04:11:22;7.80;;;5.33;;
12665;SDS011;58531;59.050;17.416;2024-02-16T04:13:48;6.20;;;5.23;;
12665;SDS011;58531;59.050;17.416;2024-02-16T04:16:15;6.20;;;5.00;;
12665;SDS011;58531;59.050;17.416;2024-02-16T04:18:42;6.60;;;5.00;;
12665;SDS011;58531;59.050;17.416;2024-02-16T04:21:11;6.97;;;5.37;;
12665;SDS011;58531;59.050;17.416;2024-02-16T04:23:40;4.83;;;4.17;;
12665;SDS011;58531;59.050;17.416;2024-02-16T04:26:06;5.53;;;4.50;;
12665;SDS011;58531;59.050;17.416;2024-02-16T04:28:34;5.57;;;4.60;;
12665;SDS011;58531;59.050;17.416;2024-02-16T04:31:02;5.47;;;3.83;;
12665;SDS011;58531;59.050;17.416;2024-02-16T04:33:29;5.03;;;4.27;;
12665;SDS011;58531;59.050;17.416;2024-02-16T04:35:56;4.87;;;3.90;;
12665;SDS011;58531;59.050;17.416;2024-02-16T04:38:23;5.27;;;4.40;;
12665;SDS011;58531;59.050;17.416;2024-02-16T04:40:51;5.93;;;4.20;;
12665;SDS011;58531;59.050;17.416;2024-02-16T04:43:18;5.93;;;4.43;;
12665;SDS011;58531;59.050;17.416;2024-02-16T04:45:45;5.30;;;4.80;;
12665;SDS011;58531;59.050;17.416;2024-02-16T04:48:12;5.50;;;4.20;;
12665;SDS011;58531;59.050;17.416;2024-02-16T04:50:39;5.90;;;4.73;;
12665;SDS011;58531;59.050;17.416;2024-02-16T04:53:06;5.73;;;4.53;;
12665;SDS011;58531;59.050;17.416;2024-02-16T04:55:33;6.33;;;5.27;;
12665;SDS011;58531;59.050;17.416;2024-02-16T04:58:03;7.73;;;5.20;;
12665;SDS011;58531;59.050;17.416;2024-02-16T05:00:34;8.87;;;4.93;;
12665;SDS011;58531;59.050;17.416;2024-02-16T05:03:01;5.70;;;4.70;;
12665;SDS011;58531;59.050;17.416;2024-02-16T05:05:28;6.07;;;5.00;;
12665;SDS011;58531;59.050;17.416;2024-02-16T05:07:55;6.90;;;5.13;;
12665;SDS011;58531;59.050;17.416;2024-02-16T05:10:22;5.90;;;5.00;;
12665;SDS011;58531;59.050;17.416;2024-02-16T05:12:49;8.20;;;5.03;;
12665;SDS011;58531;59.050;17.416;2024-02-16T05:15:18;6.17;;;5.10;;
12665;SDS011;58531;59.050;17.416;2024-02-16T05:17:46;6.03;;;4.97;;
12665;SDS011;58531;59.050;17.416;2024-02-16T05:20:14;7.03;;;5.17;;
12665;SDS011;58531;59.050;17.416;2024-02-16T05:22:41;4.63;;;4.10;;
12665;SDS011;58531;59.050;17.416;2024-02-16T05:25:10;5.10;;;4.33;;
12665;SDS011;58531;59.050;17.416;2024-02-16T05:27:37;3.97;;;3.57;;
12665;SDS011;58531;59.050;17.416;2024-02-16T05:30:05;4.77;;;3.87;;
12665;SDS011;58531;59.050;17.416;2024-02-16T05:32:36;4.80;;;3.83;;
12665;SDS011;58531;59.050;17.416;2024-02-16T05:35:03;3.23;;;2.90;;
12665;SDS011;58531;59.050;17.416;2024-02-16T05:37:36;4.20;;;3.40;;
12665;SDS011;58531;59.050;17.416;2024-02-16T05:40:06;3.63;;;3.20;;
12665;SDS011;58531;59.050;17.416;2024-02-16T05:42:44;4.53;;;3.77;;
12665;SDS011;58531;59.050;17.416;2024-02-16T05:45:12;4.17;;;3.63;;
12665;SDS011;58531;59.050;17.416;2024-02-16T05:47:40;3.93;;;3.30;;
12665;SDS011;58531;59.050;17.416;2024-02-16T05:50:08;3.43;;;3.13;;
12665;SDS011;58531;59.050;17.416;2024-02-16T05:52:37;3.80;;;2.80;;
12665;SDS011;58531;59.050;17.416;2024-02-16T05:55:04;3.17;;;2.80;;
12665;SDS011;58531;59.050;17.416;2024-02-16T05:57:32;3.13;;;2.60;;
12665;SDS011;58531;59.050;17.416;2024-02-16T05:59:59;3.10;;;2.80;;
12665;SDS011;58531;59.050;17.416;2024-02-16T06:02:28;4.07;;;3.60;;
12665;SDS011;58531;59.050;17.416;2024-02-16T06:04:56;3.23;;;2.73;;
12665;SDS011;58531;59.050;17.416;2024-02-16T06:07:23;3.27;;;2.80;;
12665;SDS011;58531;59.050;17.416;2024-02-16T06:09:50;4.50;;;2.80;;
12665;SDS011;58531;59.050;17.416;2024-02-16T06:12:19;3.70;;;3.03;;
12665;SDS011;58531;59.050;17.416;2024-02-16T06:14:48;4.87;;;3.00;;
12665;SDS011;58531;59.050;17.416;2024-02-16T06:17:15;3.77;;;3.17;;
12665;SDS011;58531;59.050;17.416;2024-02-16T06:19:43;4.17;;;3.47;;
12665;SDS011;58531;59.050;17.416;2024-02-16T06:22:11;3.50;;;3.20;;
12665;SDS011;58531;59.050;17.416;2024-02-16T06:24:38;2.77;;;2.57;;
12665;SDS011;58531;59.050;17.416;2024-02-16T06:27:05;3.47;;;3.17;;
12665;SDS011;58531;59.050;17.416;2024-02-16T06:29:33;3.43;;;3.13;;
12665;SDS011;58531;59.050;17.416;2024-02-16T06:32:00;3.40;;;3.10;;
12665;SDS011;58531;59.050;17.416;2024-02-16T06:34:27;3.40;;;3.10;;
12665;SDS011;58531;59.050;17.416;2024-02-16T06:36:59;3.17;;;2.80;;
12665;SDS011;58531;59.050;17.416;2024-02-16T06:39:27;2.87;;;2.67;;
12665;SDS011;58531;59.050;17.416;2024-02-16T06:41:56;3.60;;;3.03;;
12665;SDS011;58531;59.050;17.416;2024-02-16T06:44:23;4.50;;;2.67;;
12665;SDS011;58531;59.050;17.416;2024-02-16T06:46:49;3.80;;;2.97;;
12665;SDS011;58531;59.050;17.416;2024-02-16T06:49:16;3.10;;;2.80;;
12665;SDS011;58531;59.050;17.416;2024-02-16T06:51:43;2.60;;;2.40;;
12665;SDS011;58531;59.050;17.416;2024-02-16T06:54:11;2.90;;;2.70;;
12665;SDS011;58531;59.050;17.416;2024-02-16T06:56:39;2.97;;;2.60;;
12665;SDS011;58531;59.050;17.416;2024-02-16T06:59:06;3.23;;;2.87;;
12665;SDS011;58531;59.050;17.416;2024-02-16T07:01:33;2.87;;;2.57;;
12665;SDS011;58531;59.050;17.416;2024-02-16T07:04:03;3.40;;;2.67;;
12665;SDS011;58531;59.050;17.416;2024-02-16T07:06:34;2.87;;;2.40;;
12665;SDS011;58531;59.050;17.416;2024-02-16T07:09:01;2.70;;;2.50;;
12665;SDS011;58531;59.050;17.416;2024-02-16T07:11:28;2.47;;;2.27;;
12665;SDS011;58531;59.050;17.416;2024-02-16T07:13:56;2.43;;;2.23;;
12665;SDS011;58531;59.050;17.416;2024-02-16T07:16:24;2.30;;;2.10;;
12665;SDS011;58531;59.050;17.416;2024-02-16T07:18:52;2.60;;;2.23;;
12665;SDS011;58531;59.050;17.416;2024-02-16T07:21:18;3.57;;;2.30;;
12665;SDS011;58531;59.050;17.416;2024-02-16T07:23:47;2.63;;;2.20;;
12665;SDS011;58531;59.050;17.416;2024-02-16T07:26:14;1.90;;;1.80;;
12665;SDS011;58531;59.050;17.416;2024-02-16T07:28:42;2.57;;;1.87;;
12665;SDS011;58531;59.050;17.416;2024-02-16T07:31:11;2.00;;;1.80;;
12665;SDS011;58531;59.050;17.416;2024-02-16T07:33:39;2.43;;;2.00;;
12665;SDS011;58531;59.050;17.416;2024-02-16T07:36:06;2.00;;;1.90;;
12665;SDS011;58531;59.050;17.416;2024-02-16T07:38:33;4.30;;;1.77;;
12665;SDS011;58531;59.050;17.416;2024-02-16T07:41:01;1.90;;;1.70;;
12665;SDS011;58531;59.050;17.416;2024-02-16T07:43:29;1.50;;;1.40;;
12665;SDS011;58531;59.050;17.416;2024-02-16T07:45:57;2.10;;;1.60;;
12665;SDS011;58531;59.050;17.416;2024-02-16T07:48:25;3.53;;;1.80;;
12665;SDS011;58531;59.050;17.416;2024-02-16T07:50:52;1.93;;;1.50;;
12665;SDS011;58531;59.050;17.416;2024-02-16T07:53:19;1.60;;;1.40;;
12665;SDS011;58531;59.050;17.416;2024-02-16T07:55:46;2.40;;;1.57;;
12665;SDS011;58531;59.050;17.416;2024-02-16T07:58:13;1.30;;;1.20;;
12665;SDS011;58531;59.050;17.416;2024-02-16T08:00:40;1.57;;;1.47;;
12665;SDS011;58531;59.050;17.416;2024-02-16T08:03:06;1.87;;;1.47;;
12665;SDS011;58531;59.050;17.416;2024-02-16T08:05:35;1.53;;;1.40;;
12665;SDS011;58531;59.050;17.416;2024-02-16T08:08:02;1.43;;;1.33;;
12665;SDS011;58531;59.050;17.416;2024-02-16T08:10:30;1.43;;;1.23;;
12665;SDS011;58531;59.050;17.416;2024-02-16T08:12:56;1.60;;;1.43;;
12665;SDS011;58531;59.050;17.416;2024-02-16T08:15:24;1.67;;;1.40;;
12665;SDS011;58531;59.050;17.416;2024-02-16T08:17:51;1.40;;;1.23;;
12665;SDS011;58531;59.050;17.416;2024-02-16T08:20:19;1.77;;;1.57;;
12665;SDS011;58531;59.050;17.416;2024-02-16T08:22:47;1.63;;;1.53;;
12665;SDS011;58531;59.050;17.416;2024-02-16T08:25:14;1.47;;;1.37;;
12665;SDS011;58531;59.050;17.416;2024-02-16T08:27:42;2.13;;;1.93;;
12665;SDS011;58531;59.050;17.416;2024-02-16T08:30:09;2.40;;;1.50;;
12665;SDS011;58531;59.050;17.416;2024-02-16T08:32:36;2.03;;;1.83;;
12665;SDS011;58531;59.050;17.416;2024-02-16T08:35:03;1.50;;;1.40;;
12665;SDS011;58531;59.050;17.416;2024-02-16T08:37:30;1.70;;;1.60;;
12665;SDS011;58531;59.050;17.416;2024-02-16T08:40:00;2.13;;;1.83;;
12665;SDS011;58531;59.050;17.416;2024-02-16T08:42:28;2.83;;;1.90;;
12665;SDS011;58531;59.050;17.416;2024-02-16T08:44:56;2.00;;;1.80;;
12665;SDS011;58531;59.050;17.416;2024-02-16T08:47:25;1.97;;;1.83;;
12665;SDS011;58531;59.050;17.416;2024-02-16T08:49:52;2.50;;;2.27;;
12665;SDS011;58531;59.050;17.416;2024-02-16T08:52:19;1.80;;;1.70;;
12665;SDS011;58531;59.050;17.416;2024-02-16T08:54:45;2.07;;;1.87;;
12665;SDS011;58531;59.050;17.416;2024-02-16T08:57:14;2.30;;;2.10;;
12665;SDS011;58531;59.050;17.416;2024-02-16T08:59:42;1.83;;;1.73;;
12665;SDS011;58531;59.050;17.416;2024-02-16T09:02:09;2.00;;;1.80;;
12665;SDS011;58531;59.050;17.416;2024-02-16T09:04:37;2.13;;;1.93;;
12665;SDS011;58531;59.050;17.416;2024-02-16T09:07:05;2.20;;;2.00;;
12665;SDS011;58531;59.050;17.416;2024-02-16T09:09:35;23.70;;;4.37;;
12665;SDS011;58531;59.050;17.416;2024-02-16T09:12:02;6.97;;;3.13;;
12665;SDS011;58531;59.050;17.416;2024-02-16T09:14:30;2.13;;;1.67;;
12665;SDS011;58531;59.050;17.416;2024-02-16T09:17:01;2.10;;;1.90;;
12665;SDS011;58531;59.050;17.416;2024-02-16T09:19:28;2.53;;;2.03;;
12665;SDS011;58531;59.050;17.416;2024-02-16T09:21:54;1.80;;;1.70;;
12665;SDS011;58531;59.050;17.416;2024-02-16T09:24:23;1.87;;;1.70;;
12665;SDS011;58531;59.050;17.416;2024-02-16T09:26:53;1.93;;;1.77;;
12665;SDS011;58531;59.050;17.416;2024-02-16T09:29:20;2.23;;;2.03;;
12665;SDS011;58531;59.050;17.416;2024-02-16T09:31:50;1.90;;;1.80;;
12665;SDS011;58531;59.050;17.416;2024-02-16T09:34:16;3.90;;;2.27;;
12665;SDS011;58531;59.050;17.416;2024-02-16T09:36:43;2.03;;;1.87;;
12665;SDS011;58531;59.050;17.416;2024-02-16T09:39:10;1.87;;;1.77;;
12665;SDS011;58531;59.050;17.416;2024-02-16T09:41:37;19.83;;;3.27;;
12665;SDS011;58531;59.050;17.416;2024-02-16T09:44:08;9.17;;;2.10;;
12665;SDS011;58531;59.050;17.416;2024-02-16T09:46:35;4.17;;;2.17;;
12665;SDS011;58531;59.050;17.416;2024-02-16T09:49:04;5.63;;;2.13;;
12665;SDS011;58531;59.050;17.416;2024-02-16T09:51:31;3.90;;;2.20;;
12665;SDS011;58531;59.050;17.416;2024-02-16T09:54:02;2.00;;;1.80;;
12665;SDS011;58531;59.050;17.416;2024-02-16T09:56:29;1.80;;;1.60;;
12665;SDS011;58531;59.050;17.416;2024-02-16T09:58:57;25.13;;;3.67;;
12665;SDS011;58531;59.050;17.416;2024-02-16T10:01:24;2.60;;;1.50;;
12665;SDS011;58531;59.050;17.416;2024-02-16T10:03:53;1.50;;;1.40;;
12665;SDS011;58531;59.050;17.416;2024-02-16T10:06:22;1.50;;;1.40;;
12665;SDS011;58531;59.050;17.416;2024-02-16T10:08:49;1.30;;;1.20;;
12665;SDS011;58531;59.050;17.416;2024-02-16T10:11:17;1.23;;;1.13;;
12665;SDS011;58531;59.050;17.416;2024-02-16T10:13:56;1.30;;;1.20;;
12665;SDS011;58531;59.050;17.416;2024-02-16T10:16:23;2.33;;;1.40;;
12665;SDS011;58531;59.050;17.416;2024-02-16T10:18:54;1.50;;;1.23;;
12665;SDS011;58531;59.050;17.416;2024-02-16T10:21:26;3.23;;;2.00;;
12665;SDS011;58531;59.050;17.416;2024-02-16T10:23:59;1.77;;;1.50;;
12665;SDS011;58531;59.050;17.416;2024-02-16T10:26:29;2.23;;;1.40;;
12665;SDS011;58531;59.050;17.416;2024-02-16T10:28:56;1.50;;;1.23;;
12665;SDS011;58531;59.050;17.416;2024-02-16T10:31:24;1.43;;;1.33;;
12665;SDS011;58531;59.050;17.416;2024-02-16T10:33:56;1.50;;;1.40;;
12665;SDS011;58531;59.050;17.416;2024-02-16T10:36:25;29.80;;;4.00;;
12665;SDS011;58531;59.050;17.416;2024-02-16T10:38:53;1.53;;;1.43;;
12665;SDS011;58531;59.050;17.416;2024-02-16T10:41:22;1.97;;;1.50;;
12665;SDS011;58531;59.050;17.416;2024-02-16T10:43:52;1.63;;;1.53;;
12665;SDS011;58531;59.050;17.416;2024-02-16T10:46:20;1.53;;;1.43;;
12665;SDS011;58531;59.050;17.416;2024-02-16T10:48:48;2.27;;;1.60;;
12665;SDS011;58531;59.050;17.416;2024-02-16T10:51:15;29.53;;;4.77;;
12665;SDS011;58531;59.050;17.416;2024-02-16T10:53:47;8.70;;;2.17;;
12665;SDS011;58531;59.050;17.416;2024-02-16T10:56:26;2.30;;;2.10;;
12665;SDS011;58531;59.050;17.416;2024-02-16T10:58:53;9.73;;;2.43;;
12665;SDS011;58531;59.050;17.416;2024-02-16T11:01:20;164.67;;;16.30;;
12665;SDS011;58531;59.050;17.416;2024-02-16T11:03:47;22.07;;;4.53;;
12665;SDS011;58531;59.050;17.416;2024-02-16T11:06:14;102.87;;;11.50;;
12665;SDS011;58531;59.050;17.416;2024-02-16T11:08:42;33.67;;;4.77;;
12665;SDS011;58531;59.050;17.416;2024-02-16T11:11:11;51.10;;;8.40;;
12665;SDS011;58531;59.050;17.416;2024-02-16T11:13:49;309.63;;;29.90;;
12665;SDS011;58531;59.050;17.416;2024-02-16T11:16:17;62.10;;;6.57;;
12665;SDS011;58531;59.050;17.416;2024-02-16T11:18:45;92.90;;;9.53;;
12665;SDS011;58531;59.050;17.416;2024-02-16T11:21:14;11.30;;;2.80;;
12665;SDS011;58531;59.050;17.416;2024-02-16T11:23:41;34.93;;;4.20;;
12665;SDS011;58531;59.050;17.416;2024-02-16T11:26:09;12.60;;;3.00;;
12665;SDS011;58531;59.050;17.416;2024-02-16T11:28:38;108.73;;;11.87;;
12665;SDS011;58531;59.050;17.416;2024-02-16T11:31:07;96.80;;;7.93;;
12665;SDS011;58531;59.050;17.416;2024-02-16T11:33:34;30.30;;;5.33;;
12665;SDS011;58531;59.050;17.416;2024-02-16T11:36:02;10.40;;;3.07;;
12665;SDS011;58531;59.050;17.416;2024-02-16T11:38:30;95.83;;;9.07;;
12665;SDS011;58531;59.050;17.416;2024-02-16T11:40:57;257.60;;;21.17;;
12665;SDS011;58531;59.050;17.416;2024-02-16T11:43:27;9.37;;;2.80;;
12665;SDS011;58531;59.050;17.416;2024-02-16T11:45:54;85.30;;;8.53;;
12665;SDS011;58531;59.050;17.416;2024-02-16T11:48:21;26.87;;;4.23;;
12665;SDS011;58531;59.050;17.416;2024-02-16T11:50:49;28.97;;;4.43;;
12665;SDS011;58531;59.050;17.416;2024-02-16T11:53:16;2.37;;;1.60;;
12665;SDS011;58531;59.050;17.416;2024-02-16T11:55:47;2.63;;;1.80;;
12665;SDS011;58531;59.050;17.416;2024-02-16T11:58:15;117.43;;;11.47;;
12665;SDS011;58531;59.050;17.416;2024-02-16T12:00:45;81.67;;;8.73;;
12665;SDS011;58531;59.050;17.416;2024-02-16T12:03:17;2.10;;;1.47;;
12665;SDS011;58531;59.050;17.416;2024-02-16T12:05:52;52.30;;;6.03;;
12665;SDS011;58531;59.050;17.416;2024-02-16T12:08:20;4.73;;;1.90;;
12665;SDS011;58531;59.050;17.416;2024-02-16T12:10:48;1.83;;;1.67;;
12665;SDS011;58531;59.050;17.416;2024-02-16T12:13:16;7.77;;;2.07;;
12665;SDS011;58531;59.050;17.416;2024-02-16T12:15:45;76.63;;;7.57;;
12665;SDS011;58531;59.050;17.416;2024-02-16T12:18:21;12.40;;;2.43;;
12665;SDS011;58531;59.050;17.416;2024-02-16T12:20:58;22.73;;;3.87;;
12665;SDS011;58531;59.050;17.416;2024-02-16T12:23:25;3.33;;;1.40;;
12665;SDS011;58531;59.050;17.416;2024-02-16T12:25:52;9.00;;;2.17;;
12665;SDS011;58531;59.050;17.416;2024-02-16T12:28:19;22.53;;;3.23;;
12665;SDS011;58531;59.050;17.416;2024-02-16T12:30:51;71.77;;;6.60;;
12665;SDS011;58531;59.050;17.416;2024-02-16T12:33:18;58.13;;;7.57;;
12665;SDS011;58531;59.050;17.416;2024-02-16T12:35:45;41.20;;;5.00;;
12665;SDS011;58531;59.050;17.416;2024-02-16T12:38:12;4.60;;;1.53;;
12665;SDS011;58531;59.050;17.416;2024-02-16T12:40:39;44.37;;;4.87;;
12665;SDS011;58531;59.050;17.416;2024-02-16T12:43:08;2.83;;;1.40;;
12665;SDS011;58531;59.050;17.416;2024-02-16T12:45:36;141.47;;;13.00;;
12665;SDS011;58531;59.050;17.416;2024-02-16T12:48:05;12.10;;;2.07;;
12665;SDS011;58531;59.050;17.416;2024-02-16T12:50:33;54.03;;;5.47;;
12665;SDS011;58531;59.050;17.416;2024-02-16T12:53:00;70.83;;;7.20;;
12665;SDS011;58531;59.050;17.416;2024-02-16T12:55:26;86.70;;;6.60;;
12665;SDS011;58531;59.050;17.416;2024-02-16T12:57:54;58.90;;;6.27;;
12665;SDS011;58531;59.050;17.416;2024-02-16T13:00:22;42.73;;;4.57;;
12665;SDS011;58531;59.050;17.416;2024-02-16T13:02:49;156.83;;;13.40;;
12665;SDS011;58531;59.050;17.416;2024-02-16T13:05:17;394.37;;;35.30;;
12665;SDS011;58531;59.050;17.416;2024-02-16T13:07:44;1492.70;;;157.83;;
12665;SDS011;58531;59.050;17.416;2024-02-16T13:10:11;134.23;;;15.00;;
12665;SDS011;58531;59.050;17.416;2024-02-16T13:12:38;1106.57;;;98.87;;
12665;SDS011;58531;59.050;17.416;2024-02-16T13:15:06;1509.03;;;144.37;;
12665;SDS011;58531;59.050;17.416;2024-02-16T13:17:33;1102.13;;;99.20;;
12665;SDS011;58531;59.050;17.416;2024-02-16T13:20:00;636.97;;;54.60;;
12665;SDS011;58531;59.050;17.416;2024-02-16T13:22:33;37.73;;;4.70;;
12665;SDS011;58531;59.050;17.416;2024-02-16T13:25:00;671.10;;;64.07;;
12665;SDS011;58531;59.050;17.416;2024-02-16T13:27:28;130.73;;;12.83;;
12665;SDS011;58531;59.050;17.416;2024-02-16T13:29:55;93.10;;;11.50;;
12665;SDS011;58531;59.050;17.416;2024-02-16T13:32:22;207.77;;;23.83;;
12665;SDS011;58531;59.050;17.416;2024-02-16T13:34:49;208.03;;;19.63;;
12665;SDS011;58531;59.050;17.416;2024-02-16T13:37:16;91.93;;;9.07;;
12665;SDS011;58531;59.050;17.416;2024-02-16T13:39:47;70.17;;;7.77;;
12665;SDS011;58531;59.050;17.416;2024-02-16T13:42:14;45.23;;;5.77;;
12665;SDS011;58531;59.050;17.416;2024-02-16T13:44:42;62.77;;;6.03;;
12665;SDS011;58531;59.050;17.416;2024-02-16T13:47:09;45.73;;;4.80;;
12665;SDS011;58531;59.050;17.416;2024-02-16T13:49:36;5.17;;;1.90;;
12665;SDS011;58531;59.050;17.416;2024-02-16T13:52:02;75.93;;;6.17;;
12665;SDS011;58531;59.050;17.416;2024-02-16T13:54:30;50.43;;;5.47;;
12665;SDS011;58531;59.050;17.416;2024-02-16T13:56:58;4.70;;;1.50;;
12665;SDS011;58531;59.050;17.416;2024-02-16T13:59:25;102.60;;;10.63;;
12665;SDS011;58531;59.050;17.416;2024-02-16T14:01:52;55.93;;;6.63;;
12665;SDS011;58531;59.050;17.416;2024-02-16T14:04:19;83.30;;;6.63;;
12665;SDS011;58531;59.050;17.416;2024-02-16T14:06:47;4.30;;;1.60;;
12665;SDS011;58531;59.050;17.416;2024-02-16T14:09:14;24.40;;;3.03;;
12665;SDS011;58531;59.050;17.416;2024-02-16T14:11:41;31.43;;;4.57;;
12665;SDS011;58531;59.050;17.416;2024-02-16T14:14:09;21.83;;;2.73;;
12665;SDS011;58531;59.050;17.416;2024-02-16T14:16:36;74.83;;;7.83;;
12665;SDS011;58531;59.050;17.416;2024-02-16T14:19:03;3.23;;;1.63;;
12665;SDS011;58531;59.050;17.416;2024-02-16T14:21:30;1.90;;;1.73;;
12665;SDS011;58531;59.050;17.416;2024-02-16T14:23:57;35.60;;;4.53;;
12665;SDS011;58531;59.050;17.416;2024-02-16T14:26:24;44.07;;;4.80;;